sensor_id;sensor_type;location;lat;lon;timestamp;P1;durP1;ratioP1;P2;durP2;ratioP2
78740;SDS011;68062;48.726;9.370;2024-03-02T00:01:18;20.90;;;15.57;;
78740;SDS011;68062;48.726;9.370;2024-03-02T00:03:46;21.30;;;15.47;;
78740;SDS011;68062;48.726;9.370;2024-03-02T00:06:15;24.17;;;17.30;;
78740;SDS011;68062;48.726;9.370;2024-03-02T00:08:46;22.10;;;15.90;;
78740;SDS011;68062;48.726;9.370;2024-03-02T00:11:15;18.50;;;15.20;;
78740;SDS011;68062;48.726;9.370;2024-03-02T00:13:45;21.67;;;16.57;;
78740;SDS011;68062;48.726;9.370;2024-03-02T00:16:13;20.40;;;15.23;;
78740;SDS011;68062;48.726;9.370;2024-03-02T00:18:42;23.40;;;15.03;;
78740;SDS011;68062;48.726;9.370;2024-03-02T00:21:10;20.10;;;14.73;;
78740;SDS011;68062;48.726;9.370;2024-03-02T00:23:41;22.20;;;16.17;;
78740;SDS011;68062;48.726;9.370;2024-03-02T00:26:09;26.20;;;18.93;;
78740;SDS011;68062;48.726;9.370;2024-03-02T00:28:40;31.63;;;20.17;;
78740;SDS011;68062;48.726;9.370;2024-03-02T00:31:10;25.13;;;18.00;;
78740;SDS011;68062;48.726;9.370;2024-03-02T00:33:40;31.03;;;19.00;;
78740;SDS011;68062;48.726;9.370;2024-03-02T00:36:10;27.30;;;18.07;;
78740;SDS011;68062;48.726;9.370;2024-03-02T00:38:46;25.87;;;18.50;;
78740;SDS011;68062;48.726;9.370;2024-03-02T00:41:15;23.20;;;16.30;;
78740;SDS011;68062;48.726;9.370;2024-03-02T00:43:49;25.10;;;16.47;;
78740;SDS011;68062;48.726;9.370;2024-03-02T00:46:27;26.17;;;16.83;;
78740;SDS011;68062;48.726;9.370;2024-03-02T00:48:58;24.53;;;18.20;;
78740;SDS011;68062;48.726;9.370;2024-03-02T00:51:29;22.90;;;15.40;;
78740;SDS011;68062;48.726;9.370;2024-03-02T00:53:58;26.40;;;18.40;;
78740;SDS011;68062;48.726;9.370;2024-03-02T00:56:27;25.23;;;17.37;;
78740;SDS011;68062;48.726;9.370;2024-03-02T00:58:56;26.53;;;17.23;;
78740;SDS011;68062;48.726;9.370;2024-03-02T01:01:24;25.60;;;15.83;;
78740;SDS011;68062;48.726;9.370;2024-03-02T01:03:52;24.17;;;16.83;;
78740;SDS011;68062;48.726;9.370;2024-03-02T01:06:21;22.70;;;16.13;;
78740;SDS011;68062;48.726;9.370;2024-03-02T01:08:50;21.40;;;16.87;;
78740;SDS011;68062;48.726;9.370;2024-03-02T01:11:19;24.37;;;16.27;;
78740;SDS011;68062;48.726;9.370;2024-03-02T01:13:49;22.57;;;15.47;;
78740;SDS011;68062;48.726;9.370;2024-03-02T01:16:19;23.73;;;16.10;;
78740;SDS011;68062;48.726;9.370;2024-03-02T01:18:48;25.33;;;16.00;;
78740;SDS011;68062;48.726;9.370;2024-03-02T01:21:16;23.47;;;16.40;;
78740;SDS011;68062;48.726;9.370;2024-03-02T01:23:44;23.47;;;15.60;;
78740;SDS011;68062;48.726;9.370;2024-03-02T01:26:12;22.43;;;16.27;;
78740;SDS011;68062;48.726;9.370;2024-03-02T01:28:40;29.23;;;17.53;;
78740;SDS011;68062;48.726;9.370;2024-03-02T01:31:08;23.33;;;15.50;;
78740;SDS011;68062;48.726;9.370;2024-03-02T01:33:38;19.23;;;13.50;;
78740;SDS011;68062;48.726;9.370;2024-03-02T01:36:06;19.53;;;14.10;;
78740;SDS011;68062;48.726;9.370;2024-03-02T01:38:34;24.93;;;15.57;;
78740;SDS011;68062;48.726;9.370;2024-03-02T01:41:03;27.67;;;16.47;;
78740;SDS011;68062;48.726;9.370;2024-03-02T01:43:30;22.10;;;14.60;;
78740;SDS011;68062;48.726;9.370;2024-03-02T01:45:58;25.43;;;15.23;;
78740;SDS011;68062;48.726;9.370;2024-03-02T01:48:26;17.97;;;14.00;;
78740;SDS011;68062;48.726;9.370;2024-03-02T01:50:55;23.80;;;14.60;;
78740;SDS011;68062;48.726;9.370;2024-03-02T01:53:24;22.10;;;15.10;;
78740;SDS011;68062;48.726;9.370;2024-03-02T01:55:51;19.10;;;14.70;;
78740;SDS011;68062;48.726;9.370;2024-03-02T01:58:19;21.93;;;15.83;;
78740;SDS011;68062;48.726;9.370;2024-03-02T02:00:47;20.47;;;14.93;;
78740;SDS011;68062;48.726;9.370;2024-03-02T02:03:17;22.83;;;14.20;;
78740;SDS011;68062;48.726;9.370;2024-03-02T02:05:45;23.80;;;15.10;;
78740;SDS011;68062;48.726;9.370;2024-03-02T02:08:15;23.37;;;16.07;;
78740;SDS011;68062;48.726;9.370;2024-03-02T02:10:43;21.37;;;13.40;;
78740;SDS011;68062;48.726;9.370;2024-03-02T02:13:11;21.70;;;15.67;;
78740;SDS011;68062;48.726;9.370;2024-03-02T02:15:39;22.10;;;14.50;;
78740;SDS011;68062;48.726;9.370;2024-03-02T02:18:07;23.60;;;15.07;;
78740;SDS011;68062;48.726;9.370;2024-03-02T02:20:35;24.03;;;14.40;;
78740;SDS011;68062;48.726;9.370;2024-03-02T02:23:04;21.57;;;15.60;;
78740;SDS011;68062;48.726;9.370;2024-03-02T02:25:34;21.67;;;14.60;;
78740;SDS011;68062;48.726;9.370;2024-03-02T02:28:02;28.50;;;16.57;;
78740;SDS011;68062;48.726;9.370;2024-03-02T02:30:31;20.80;;;15.13;;
78740;SDS011;68062;48.726;9.370;2024-03-02T02:33:00;24.17;;;14.20;;
78740;SDS011;68062;48.726;9.370;2024-03-02T02:35:28;28.93;;;16.47;;
78740;SDS011;68062;48.726;9.370;2024-03-02T02:37:57;23.40;;;14.50;;
78740;SDS011;68062;48.726;9.370;2024-03-02T02:40:27;22.33;;;16.10;;
78740;SDS011;68062;48.726;9.370;2024-03-02T02:42:55;18.40;;;13.93;;
78740;SDS011;68062;48.726;9.370;2024-03-02T02:45:24;21.50;;;15.17;;
78740;SDS011;68062;48.726;9.370;2024-03-02T02:47:51;21.53;;;14.20;;
78740;SDS011;68062;48.726;9.370;2024-03-02T02:50:19;24.50;;;14.87;;
78740;SDS011;68062;48.726;9.370;2024-03-02T02:52:47;23.53;;;15.07;;
78740;SDS011;68062;48.726;9.370;2024-03-02T02:55:16;21.57;;;15.17;;
78740;SDS011;68062;48.726;9.370;2024-03-02T02:57:46;19.13;;;14.60;;
78740;SDS011;68062;48.726;9.370;2024-03-02T03:00:14;20.80;;;14.00;;
78740;SDS011;68062;48.726;9.370;2024-03-02T03:02:47;23.30;;;16.03;;
78740;SDS011;68062;48.726;9.370;2024-03-02T03:05:17;20.33;;;13.70;;
78740;SDS011;68062;48.726;9.370;2024-03-02T03:07:45;23.67;;;15.10;;
78740;SDS011;68062;48.726;9.370;2024-03-02T03:10:16;22.60;;;14.10;;
78740;SDS011;68062;48.726;9.370;2024-03-02T03:12:46;22.40;;;14.63;;
78740;SDS011;68062;48.726;9.370;2024-03-02T03:15:14;21.90;;;15.87;;
78740;SDS011;68062;48.726;9.370;2024-03-02T03:17:43;24.97;;;16.50;;
78740;SDS011;68062;48.726;9.370;2024-03-02T03:20:12;22.60;;;15.10;;
78740;SDS011;68062;48.726;9.370;2024-03-02T03:22:42;26.40;;;16.60;;
78740;SDS011;68062;48.726;9.370;2024-03-02T03:25:10;22.10;;;15.40;;
78740;SDS011;68062;48.726;9.370;2024-03-02T03:27:38;21.03;;;14.53;;
78740;SDS011;68062;48.726;9.370;2024-03-02T03:30:08;28.37;;;15.30;;
78740;SDS011;68062;48.726;9.370;2024-03-02T03:32:36;21.10;;;14.77;;
78740;SDS011;68062;48.726;9.370;2024-03-02T03:35:04;22.97;;;15.47;;
78740;SDS011;68062;48.726;9.370;2024-03-02T03:37:33;27.53;;;16.17;;
78740;SDS011;68062;48.726;9.370;2024-03-02T03:40:02;23.23;;;14.60;;
78740;SDS011;68062;48.726;9.370;2024-03-02T03:42:34;21.13;;;14.93;;
78740;SDS011;68062;48.726;9.370;2024-03-02T03:45:02;25.03;;;16.47;;
78740;SDS011;68062;48.726;9.370;2024-03-02T03:47:32;20.40;;;15.13;;
78740;SDS011;68062;48.726;9.370;2024-03-02T03:50:00;22.73;;;14.23;;
78740;SDS011;68062;48.726;9.370;2024-03-02T03:52:31;20.73;;;14.77;;
78740;SDS011;68062;48.726;9.370;2024-03-02T03:54:58;21.03;;;14.17;;
78740;SDS011;68062;48.726;9.370;2024-03-02T03:57:26;21.03;;;14.50;;
78740;SDS011;68062;48.726;9.370;2024-03-02T03:59:54;23.30;;;16.47;;
78740;SDS011;68062;48.726;9.370;2024-03-02T04:02:22;22.30;;;14.67;;
78740;SDS011;68062;48.726;9.370;2024-03-02T04:04:52;21.20;;;14.60;;
78740;SDS011;68062;48.726;9.370;2024-03-02T04:07:20;24.23;;;15.60;;
78740;SDS011;68062;48.726;9.370;2024-03-02T04:09:48;23.40;;;15.63;;
78740;SDS011;68062;48.726;9.370;2024-03-02T04:12:16;25.80;;;16.43;;
78740;SDS011;68062;48.726;9.370;2024-03-02T04:14:44;23.53;;;16.30;;
78740;SDS011;68062;48.726;9.370;2024-03-02T04:17:12;26.37;;;16.47;;
78740;SDS011;68062;48.726;9.370;2024-03-02T04:19:40;23.67;;;15.27;;
78740;SDS011;68062;48.726;9.370;2024-03-02T04:22:09;21.27;;;14.40;;
78740;SDS011;68062;48.726;9.370;2024-03-02T04:24:47;27.53;;;15.60;;
78740;SDS011;68062;48.726;9.370;2024-03-02T04:27:15;22.27;;;15.53;;
78740;SDS011;68062;48.726;9.370;2024-03-02T04:29:43;27.33;;;16.13;;
78740;SDS011;68062;48.726;9.370;2024-03-02T04:32:10;22.10;;;15.70;;
78740;SDS011;68062;48.726;9.370;2024-03-02T04:34:38;23.67;;;14.90;;
78740;SDS011;68062;48.726;9.370;2024-03-02T04:37:08;22.90;;;14.40;;
78740;SDS011;68062;48.726;9.370;2024-03-02T04:39:36;22.17;;;15.00;;
78740;SDS011;68062;48.726;9.370;2024-03-02T04:42:04;25.37;;;15.30;;
78740;SDS011;68062;48.726;9.370;2024-03-02T04:44:32;26.40;;;17.10;;
78740;SDS011;68062;48.726;9.370;2024-03-02T04:47:00;26.27;;;14.63;;
78740;SDS011;68062;48.726;9.370;2024-03-02T04:49:28;26.43;;;16.47;;
78740;SDS011;68062;48.726;9.370;2024-03-02T04:51:56;22.10;;;15.70;;
78740;SDS011;68062;48.726;9.370;2024-03-02T04:54:25;27.93;;;14.97;;
78740;SDS011;68062;48.726;9.370;2024-03-02T04:56:53;24.80;;;15.97;;
78740;SDS011;68062;48.726;9.370;2024-03-02T04:59:20;26.33;;;14.90;;
78740;SDS011;68062;48.726;9.370;2024-03-02T05:01:48;26.20;;;16.37;;
78740;SDS011;68062;48.726;9.370;2024-03-02T05:04:16;24.33;;;16.40;;
78740;SDS011;68062;48.726;9.370;2024-03-02T05:06:44;25.03;;;16.00;;
78740;SDS011;68062;48.726;9.370;2024-03-02T05:09:18;24.63;;;15.77;;
78740;SDS011;68062;48.726;9.370;2024-03-02T05:11:47;19.77;;;14.10;;
78740;SDS011;68062;48.726;9.370;2024-03-02T05:14:38;26.00;;;17.37;;
78740;SDS011;68062;48.726;9.370;2024-03-02T05:17:06;24.80;;;16.20;;
78740;SDS011;68062;48.726;9.370;2024-03-02T05:19:34;25.47;;;16.40;;
78740;SDS011;68062;48.726;9.370;2024-03-02T05:22:02;26.33;;;16.10;;
78740;SDS011;68062;48.726;9.370;2024-03-02T05:24:30;31.40;;;17.43;;
78740;SDS011;68062;48.726;9.370;2024-03-02T05:27:00;29.23;;;16.80;;
78740;SDS011;68062;48.726;9.370;2024-03-02T05:29:28;25.50;;;16.23;;
78740;SDS011;68062;48.726;9.370;2024-03-02T05:31:56;27.73;;;18.00;;
78740;SDS011;68062;48.726;9.370;2024-03-02T05:34:23;32.40;;;18.40;;
78740;SDS011;68062;48.726;9.370;2024-03-02T05:36:51;33.33;;;17.80;;
78740;SDS011;68062;48.726;9.370;2024-03-02T05:39:20;26.37;;;16.93;;
78740;SDS011;68062;48.726;9.370;2024-03-02T05:41:48;27.03;;;15.70;;
78740;SDS011;68062;48.726;9.370;2024-03-02T05:44:17;21.97;;;15.03;;
78740;SDS011;68062;48.726;9.370;2024-03-02T05:46:46;25.23;;;15.40;;
78740;SDS011;68062;48.726;9.370;2024-03-02T05:49:14;22.50;;;15.13;;
78740;SDS011;68062;48.726;9.370;2024-03-02T05:51:42;27.37;;;16.63;;
78740;SDS011;68062;48.726;9.370;2024-03-02T05:54:10;26.50;;;17.30;;
78740;SDS011;68062;48.726;9.370;2024-03-02T05:56:38;25.80;;;17.00;;
78740;SDS011;68062;48.726;9.370;2024-03-02T05:59:06;26.83;;;16.43;;
78740;SDS011;68062;48.726;9.370;2024-03-02T06:01:43;24.27;;;16.30;;
78740;SDS011;68062;48.726;9.370;2024-03-02T06:04:13;23.87;;;15.57;;
78740;SDS011;68062;48.726;9.370;2024-03-02T06:06:41;27.10;;;15.43;;
78740;SDS011;68062;48.726;9.370;2024-03-02T06:09:09;28.00;;;16.77;;
78740;SDS011;68062;48.726;9.370;2024-03-02T06:11:39;23.17;;;15.83;;
78740;SDS011;68062;48.726;9.370;2024-03-02T06:14:08;26.70;;;16.40;;
78740;SDS011;68062;48.726;9.370;2024-03-02T06:16:36;24.00;;;14.80;;
78740;SDS011;68062;48.726;9.370;2024-03-02T06:19:05;22.57;;;14.63;;
78740;SDS011;68062;48.726;9.370;2024-03-02T06:21:33;28.17;;;16.00;;
78740;SDS011;68062;48.726;9.370;2024-03-02T06:24:01;25.13;;;15.73;;
78740;SDS011;68062;48.726;9.370;2024-03-02T06:26:29;26.20;;;15.73;;
78740;SDS011;68062;48.726;9.370;2024-03-02T06:28:58;25.27;;;16.20;;
78740;SDS011;68062;48.726;9.370;2024-03-02T06:31:26;25.27;;;16.50;;
78740;SDS011;68062;48.726;9.370;2024-03-02T06:33:53;26.80;;;16.80;;
78740;SDS011;68062;48.726;9.370;2024-03-02T06:36:23;30.83;;;18.57;;
78740;SDS011;68062;48.726;9.370;2024-03-02T06:38:51;24.70;;;17.00;;
78740;SDS011;68062;48.726;9.370;2024-03-02T06:41:19;25.20;;;15.87;;
78740;SDS011;68062;48.726;9.370;2024-03-02T06:43:46;25.90;;;15.90;;
78740;SDS011;68062;48.726;9.370;2024-03-02T06:46:14;24.40;;;17.60;;
78740;SDS011;68062;48.726;9.370;2024-03-02T06:48:42;27.37;;;16.60;;
78740;SDS011;68062;48.726;9.370;2024-03-02T06:51:10;26.30;;;17.90;;
78740;SDS011;68062;48.726;9.370;2024-03-02T06:53:39;26.93;;;17.60;;
78740;SDS011;68062;48.726;9.370;2024-03-02T06:56:07;27.90;;;16.60;;
78740;SDS011;68062;48.726;9.370;2024-03-02T06:58:35;30.27;;;18.50;;
78740;SDS011;68062;48.726;9.370;2024-03-02T07:01:03;33.47;;;20.80;;
78740;SDS011;68062;48.726;9.370;2024-03-02T07:03:32;33.70;;;20.50;;
78740;SDS011;68062;48.726;9.370;2024-03-02T07:06:00;32.67;;;19.10;;
78740;SDS011;68062;48.726;9.370;2024-03-02T07:08:28;38.53;;;22.27;;
78740;SDS011;68062;48.726;9.370;2024-03-02T07:10:57;31.23;;;19.30;;
78740;SDS011;68062;48.726;9.370;2024-03-02T07:13:26;32.57;;;19.40;;
78740;SDS011;68062;48.726;9.370;2024-03-02T07:15:54;27.37;;;18.33;;
78740;SDS011;68062;48.726;9.370;2024-03-02T07:18:54;25.27;;;17.90;;
78740;SDS011;68062;48.726;9.370;2024-03-02T07:21:23;29.10;;;18.53;;
78740;SDS011;68062;48.726;9.370;2024-03-02T07:23:51;29.80;;;18.13;;
78740;SDS011;68062;48.726;9.370;2024-03-02T07:26:20;27.27;;;17.80;;
78740;SDS011;68062;48.726;9.370;2024-03-02T07:28:51;31.60;;;18.70;;
78740;SDS011;68062;48.726;9.370;2024-03-02T07:31:19;36.40;;;19.93;;
78740;SDS011;68062;48.726;9.370;2024-03-02T07:33:47;33.13;;;20.60;;
78740;SDS011;68062;48.726;9.370;2024-03-02T07:36:15;30.40;;;18.60;;
78740;SDS011;68062;48.726;9.370;2024-03-02T07:38:43;33.50;;;22.13;;
78740;SDS011;68062;48.726;9.370;2024-03-02T07:41:11;36.20;;;21.10;;
78740;SDS011;68062;48.726;9.370;2024-03-02T07:43:41;31.30;;;19.90;;
78740;SDS011;68062;48.726;9.370;2024-03-02T07:46:09;33.37;;;20.63;;
78740;SDS011;68062;48.726;9.370;2024-03-02T07:48:37;31.93;;;19.87;;
78740;SDS011;68062;48.726;9.370;2024-03-02T07:51:05;27.37;;;18.73;;
78740;SDS011;68062;48.726;9.370;2024-03-02T07:53:33;27.00;;;17.60;;
78740;SDS011;68062;48.726;9.370;2024-03-02T07:56:03;23.63;;;15.57;;
78740;SDS011;68062;48.726;9.370;2024-03-02T07:58:34;20.67;;;14.67;;
78740;SDS011;68062;48.726;9.370;2024-03-02T08:01:05;21.60;;;14.27;;
78740;SDS011;68062;48.726;9.370;2024-03-02T08:03:33;20.77;;;13.90;;
78740;SDS011;68062;48.726;9.370;2024-03-02T08:06:02;21.30;;;14.70;;
78740;SDS011;68062;48.726;9.370;2024-03-02T08:08:30;20.73;;;13.47;;
78740;SDS011;68062;48.726;9.370;2024-03-02T08:10:58;17.30;;;13.60;;
78740;SDS011;68062;48.726;9.370;2024-03-02T08:13:27;19.80;;;13.30;;
78740;SDS011;68062;48.726;9.370;2024-03-02T08:15:55;21.00;;;14.30;;
78740;SDS011;68062;48.726;9.370;2024-03-02T08:18:24;20.03;;;13.33;;
78740;SDS011;68062;48.726;9.370;2024-03-02T08:20:52;29.23;;;15.63;;
78740;SDS011;68062;48.726;9.370;2024-03-02T08:23:20;22.70;;;15.20;;
78740;SDS011;68062;48.726;9.370;2024-03-02T08:25:48;20.33;;;14.33;;
78740;SDS011;68062;48.726;9.370;2024-03-02T08:28:16;22.27;;;15.27;;
78740;SDS011;68062;48.726;9.370;2024-03-02T08:30:44;23.07;;;14.70;;
78740;SDS011;68062;48.726;9.370;2024-03-02T08:33:12;16.93;;;12.87;;
78740;SDS011;68062;48.726;9.370;2024-03-02T08:35:42;17.57;;;13.73;;
78740;SDS011;68062;48.726;9.370;2024-03-02T08:38:10;20.67;;;14.60;;
78740;SDS011;68062;48.726;9.370;2024-03-02T08:40:38;18.37;;;13.90;;
78740;SDS011;68062;48.726;9.370;2024-03-02T08:43:07;18.03;;;14.23;;
78740;SDS011;68062;48.726;9.370;2024-03-02T08:45:34;22.23;;;14.83;;
78740;SDS011;68062;48.726;9.370;2024-03-02T08:48:03;18.73;;;13.30;;
78740;SDS011;68062;48.726;9.370;2024-03-02T08:50:31;20.27;;;13.97;;
78740;SDS011;68062;48.726;9.370;2024-03-02T08:53:00;16.80;;;12.20;;
78740;SDS011;68062;48.726;9.370;2024-03-02T08:55:28;18.17;;;12.73;;
78740;SDS011;68062;48.726;9.370;2024-03-02T08:57:56;15.50;;;12.83;;
78740;SDS011;68062;48.726;9.370;2024-03-02T09:00:24;15.70;;;13.50;;
78740;SDS011;68062;48.726;9.370;2024-03-02T09:02:52;19.57;;;14.27;;
78740;SDS011;68062;48.726;9.370;2024-03-02T09:05:20;18.03;;;13.90;;
78740;SDS011;68062;48.726;9.370;2024-03-02T09:07:48;19.50;;;14.63;;
78740;SDS011;68062;48.726;9.370;2024-03-02T09:10:17;15.80;;;12.13;;
78740;SDS011;68062;48.726;9.370;2024-03-02T09:12:45;17.90;;;12.70;;
78740;SDS011;68062;48.726;9.370;2024-03-02T09:15:13;17.60;;;13.50;;
78740;SDS011;68062;48.726;9.370;2024-03-02T09:17:41;13.43;;;12.30;;
78740;SDS011;68062;48.726;9.370;2024-03-02T09:20:09;13.63;;;11.47;;
78740;SDS011;68062;48.726;9.370;2024-03-02T09:22:38;12.23;;;9.70;;
78740;SDS011;68062;48.726;9.370;2024-03-02T09:25:06;12.33;;;10.00;;
78740;SDS011;68062;48.726;9.370;2024-03-02T09:27:37;12.73;;;9.20;;
78740;SDS011;68062;48.726;9.370;2024-03-02T09:30:06;11.67;;;10.30;;
78740;SDS011;68062;48.726;9.370;2024-03-02T09:32:37;12.97;;;8.30;;
78740;SDS011;68062;48.726;9.370;2024-03-02T09:35:05;10.47;;;7.83;;
78740;SDS011;68062;48.726;9.370;2024-03-02T09:37:33;10.07;;;7.80;;
78740;SDS011;68062;48.726;9.370;2024-03-02T09:40:02;6.70;;;6.30;;
78740;SDS011;68062;48.726;9.370;2024-03-02T09:42:31;7.60;;;6.97;;
78740;SDS011;68062;48.726;9.370;2024-03-02T09:45:01;10.60;;;7.80;;
78740;SDS011;68062;48.726;9.370;2024-03-02T09:47:29;10.77;;;6.77;;
78740;SDS011;68062;48.726;9.370;2024-03-02T09:49:57;10.07;;;7.73;;
78740;SDS011;68062;48.726;9.370;2024-03-02T09:52:25;6.97;;;6.60;;
78740;SDS011;68062;48.726;9.370;2024-03-02T09:54:53;8.90;;;7.27;;
78740;SDS011;68062;48.726;9.370;2024-03-02T09:57:21;8.30;;;6.80;;
78740;SDS011;68062;48.726;9.370;2024-03-02T09:59:49;9.07;;;5.97;;
78740;SDS011;68062;48.726;9.370;2024-03-02T10:02:18;7.73;;;7.40;;
78740;SDS011;68062;48.726;9.370;2024-03-02T10:04:47;8.40;;;6.63;;
78740;SDS011;68062;48.726;9.370;2024-03-02T10:07:17;8.03;;;5.83;;
78740;SDS011;68062;48.726;9.370;2024-03-02T10:09:46;6.10;;;5.80;;
78740;SDS011;68062;48.726;9.370;2024-03-02T10:12:16;5.53;;;5.20;;
78740;SDS011;68062;48.726;9.370;2024-03-02T10:14:45;5.80;;;4.60;;
78740;SDS011;68062;48.726;9.370;2024-03-02T10:17:16;5.10;;;4.23;;
78740;SDS011;68062;48.726;9.370;2024-03-02T10:19:46;6.50;;;5.10;;
78740;SDS011;68062;48.726;9.370;2024-03-02T10:22:14;4.70;;;4.30;;
78740;SDS011;68062;48.726;9.370;2024-03-02T10:24:42;4.30;;;4.00;;
78740;SDS011;68062;48.726;9.370;2024-03-02T10:27:14;4.00;;;3.80;;
78740;SDS011;68062;48.726;9.370;2024-03-02T10:29:45;5.03;;;4.10;;
78740;SDS011;68062;48.726;9.370;2024-03-02T10:32:13;4.30;;;4.00;;
78740;SDS011;68062;48.726;9.370;2024-03-02T10:34:44;4.70;;;4.17;;
78740;SDS011;68062;48.726;9.370;2024-03-02T10:37:14;3.30;;;3.20;;
78740;SDS011;68062;48.726;9.370;2024-03-02T10:39:45;4.07;;;3.87;;
78740;SDS011;68062;48.726;9.370;2024-03-02T10:42:14;5.60;;;3.77;;
78740;SDS011;68062;48.726;9.370;2024-03-02T10:44:43;3.50;;;3.30;;
78740;SDS011;68062;48.726;9.370;2024-03-02T10:47:12;4.00;;;3.73;;
78740;SDS011;68062;48.726;9.370;2024-03-02T10:49:44;4.70;;;3.90;;
78740;SDS011;68062;48.726;9.370;2024-03-02T10:52:14;5.17;;;4.87;;
78740;SDS011;68062;48.726;9.370;2024-03-02T10:54:42;5.57;;;4.37;;
78740;SDS011;68062;48.726;9.370;2024-03-02T10:57:10;4.23;;;4.00;;
78740;SDS011;68062;48.726;9.370;2024-03-02T10:59:43;4.87;;;4.60;;
78740;SDS011;68062;48.726;9.370;2024-03-02T11:02:19;5.13;;;4.70;;
78740;SDS011;68062;48.726;9.370;2024-03-02T11:04:50;4.03;;;3.87;;
78740;SDS011;68062;48.726;9.370;2024-03-02T11:07:22;3.53;;;3.20;;
78740;SDS011;68062;48.726;9.370;2024-03-02T11:09:53;4.13;;;3.40;;
78740;SDS011;68062;48.726;9.370;2024-03-02T11:12:27;3.90;;;3.73;;
78740;SDS011;68062;48.726;9.370;2024-03-02T11:14:56;3.60;;;3.37;;
78740;SDS011;68062;48.726;9.370;2024-03-02T11:17:26;3.30;;;3.10;;
78740;SDS011;68062;48.726;9.370;2024-03-02T11:19:55;4.63;;;3.63;;
78740;SDS011;68062;48.726;9.370;2024-03-02T11:22:25;4.13;;;3.53;;
78740;SDS011;68062;48.726;9.370;2024-03-02T11:24:54;3.47;;;3.27;;
78740;SDS011;68062;48.726;9.370;2024-03-02T11:33:24;3.70;;;3.00;;
78740;SDS011;68062;48.726;9.370;2024-03-02T11:35:56;3.67;;;3.33;;
78740;SDS011;68062;48.726;9.370;2024-03-02T11:38:28;3.10;;;2.43;;
78740;SDS011;68062;48.726;9.370;2024-03-02T11:40:59;2.40;;;2.07;;
78740;SDS011;68062;48.726;9.370;2024-03-02T11:43:27;2.40;;;1.73;;
78740;SDS011;68062;48.726;9.370;2024-03-02T11:45:56;1.87;;;1.80;;
78740;SDS011;68062;48.726;9.370;2024-03-02T11:48:25;1.57;;;1.40;;
78740;SDS011;68062;48.726;9.370;2024-03-02T11:50:53;1.90;;;1.30;;
78740;SDS011;68062;48.726;9.370;2024-03-02T11:53:26;2.03;;;1.90;;
78740;SDS011;68062;48.726;9.370;2024-03-02T11:55:58;1.70;;;1.70;;
78740;SDS011;68062;48.726;9.370;2024-03-02T11:58:28;2.00;;;1.73;;
78740;SDS011;68062;48.726;9.370;2024-03-02T12:00:56;1.93;;;1.67;;
78740;SDS011;68062;48.726;9.370;2024-03-02T12:03:24;2.03;;;1.50;;
78740;SDS011;68062;48.726;9.370;2024-03-02T12:05:54;1.73;;;1.67;;
78740;SDS011;68062;48.726;9.370;2024-03-02T12:08:22;1.33;;;1.30;;
78740;SDS011;68062;48.726;9.370;2024-03-02T12:10:59;1.80;;;1.60;;
78740;SDS011;68062;48.726;9.370;2024-03-02T12:13:30;1.73;;;1.67;;
78740;SDS011;68062;48.726;9.370;2024-03-02T12:15:58;3.17;;;1.70;;
78740;SDS011;68062;48.726;9.370;2024-03-02T12:18:27;1.90;;;1.80;;
78740;SDS011;68062;48.726;9.370;2024-03-02T12:20:54;2.83;;;2.00;;
78740;SDS011;68062;48.726;9.370;2024-03-02T12:23:24;1.87;;;1.77;;
78740;SDS011;68062;48.726;9.370;2024-03-02T12:25:53;1.43;;;1.33;;
78740;SDS011;68062;48.726;9.370;2024-03-02T12:28:22;1.80;;;1.70;;
78740;SDS011;68062;48.726;9.370;2024-03-02T12:30:50;2.40;;;1.80;;
78740;SDS011;68062;48.726;9.370;2024-03-02T12:33:18;1.80;;;1.50;;
78740;SDS011;68062;48.726;9.370;2024-03-02T12:35:48;1.67;;;1.60;;
78740;SDS011;68062;48.726;9.370;2024-03-02T12:38:17;2.27;;;1.80;;
78740;SDS011;68062;48.726;9.370;2024-03-02T12:40:47;2.63;;;1.80;;
78740;SDS011;68062;48.726;9.370;2024-03-02T12:43:15;1.57;;;1.37;;
78740;SDS011;68062;48.726;9.370;2024-03-02T12:45:45;2.20;;;1.80;;
78740;SDS011;68062;48.726;9.370;2024-03-02T12:48:13;1.70;;;1.23;;
78740;SDS011;68062;48.726;9.370;2024-03-02T12:50:41;1.43;;;1.33;;
78740;SDS011;68062;48.726;9.370;2024-03-02T12:53:13;1.60;;;1.23;;
78740;SDS011;68062;48.726;9.370;2024-03-02T12:55:42;2.73;;;1.70;;
78740;SDS011;68062;48.726;9.370;2024-03-02T12:58:16;2.53;;;1.67;;
78740;SDS011;68062;48.726;9.370;2024-03-02T13:00:46;1.77;;;1.20;;
78740;SDS011;68062;48.726;9.370;2024-03-02T13:03:14;1.17;;;1.10;;
78740;SDS011;68062;48.726;9.370;2024-03-02T13:05:47;1.40;;;1.03;;
78740;SDS011;68062;48.726;9.370;2024-03-02T13:08:16;2.30;;;1.13;;
78740;SDS011;68062;48.726;9.370;2024-03-02T13:10:44;1.30;;;1.00;;
78740;SDS011;68062;48.726;9.370;2024-03-02T13:13:13;1.33;;;1.27;;
78740;SDS011;68062;48.726;9.370;2024-03-02T13:15:41;1.40;;;1.30;;
78740;SDS011;68062;48.726;9.370;2024-03-02T13:18:11;1.50;;;1.10;;
78740;SDS011;68062;48.726;9.370;2024-03-02T13:20:39;1.23;;;1.23;;
78740;SDS011;68062;48.726;9.370;2024-03-02T13:23:07;1.10;;;1.00;;
78740;SDS011;68062;48.726;9.370;2024-03-02T13:25:37;2.00;;;1.80;;
78740;SDS011;68062;48.726;9.370;2024-03-02T13:28:05;1.40;;;1.27;;
78740;SDS011;68062;48.726;9.370;2024-03-02T13:30:33;2.50;;;1.50;;
78740;SDS011;68062;48.726;9.370;2024-03-02T13:33:01;1.37;;;1.27;;
78740;SDS011;68062;48.726;9.370;2024-03-02T13:35:30;2.07;;;1.47;;
78740;SDS011;68062;48.726;9.370;2024-03-02T13:37:58;1.80;;;1.77;;
78740;SDS011;68062;48.726;9.370;2024-03-02T13:40:26;1.93;;;1.70;;
78740;SDS011;68062;48.726;9.370;2024-03-02T13:42:55;2.70;;;1.93;;
78740;SDS011;68062;48.726;9.370;2024-03-02T13:45:23;1.73;;;1.00;;
78740;SDS011;68062;48.726;9.370;2024-03-02T13:47:51;1.20;;;1.00;;
78740;SDS011;68062;48.726;9.370;2024-03-02T13:50:19;1.57;;;1.47;;
78740;SDS011;68062;48.726;9.370;2024-03-02T13:52:49;2.40;;;1.30;;
78740;SDS011;68062;48.726;9.370;2024-03-02T13:55:17;1.20;;;1.10;;
78740;SDS011;68062;48.726;9.370;2024-03-02T13:57:45;1.93;;;1.47;;
78740;SDS011;68062;48.726;9.370;2024-03-02T14:00:14;1.57;;;1.27;;
78740;SDS011;68062;48.726;9.370;2024-03-02T14:02:43;2.80;;;2.60;;
78740;SDS011;68062;48.726;9.370;2024-03-02T14:05:13;1.03;;;0.93;;
78740;SDS011;68062;48.726;9.370;2024-03-02T14:07:41;2.30;;;0.90;;
78740;SDS011;68062;48.726;9.370;2024-03-02T14:10:11;1.57;;;1.30;;
78740;SDS011;68062;48.726;9.370;2024-03-02T14:12:40;2.03;;;1.50;;
78740;SDS011;68062;48.726;9.370;2024-03-02T14:15:09;2.20;;;1.17;;
78740;SDS011;68062;48.726;9.370;2024-03-02T14:17:37;1.67;;;1.33;;
78740;SDS011;68062;48.726;9.370;2024-03-02T14:20:05;1.77;;;1.40;;
78740;SDS011;68062;48.726;9.370;2024-03-02T14:22:36;1.27;;;1.23;;
78740;SDS011;68062;48.726;9.370;2024-03-02T14:25:04;3.67;;;1.40;;
78740;SDS011;68062;48.726;9.370;2024-03-02T14:27:34;3.93;;;1.80;;
78740;SDS011;68062;48.726;9.370;2024-03-02T14:30:22;1.53;;;1.20;;
78740;SDS011;68062;48.726;9.370;2024-03-02T14:32:51;2.40;;;2.07;;
78740;SDS011;68062;48.726;9.370;2024-03-02T14:35:18;1.43;;;1.33;;
78740;SDS011;68062;48.726;9.370;2024-03-02T14:37:49;1.47;;;1.37;;
78740;SDS011;68062;48.726;9.370;2024-03-02T14:40:17;4.13;;;3.70;;
78740;SDS011;68062;48.726;9.370;2024-03-02T14:42:46;1.50;;;1.40;;
78740;SDS011;68062;48.726;9.370;2024-03-02T14:45:14;1.53;;;1.37;;
78740;SDS011;68062;48.726;9.370;2024-03-02T14:47:42;1.97;;;1.87;;